SBRB/RBR METAR and TAF weather

Enter ICAO airport designator
Station Type Date Time Source
SBRB METAR 2024/02/26 17:00 UTC NOAA

SBRB 261700Z 17005KT 9999 BKN020 BKN080 28/24 Q1014


Station Type Date Time Source
SBRB Decoded METAR 2024/02/26 17:00 UTC NOAA

Rio Branco, Brazil (SBRB) 10-00S 067-48W 143M
Feb 26, 2024 - 12:00 PM EST / 2024.02.26 1700 UTC
Wind: from the S (170 degrees) at 6 MPH (5 KT):0
Visibility: greater than 7 mile(s):0
Sky conditions: mostly cloudy
Temperature: 82 F (28 C)
Dew Point: 75 F (24 C)
Relative Humidity: 78%
Pressure (altimeter): 29.94 in. Hg (1014 hPa)
ob: SBRB 261700Z 17005KT 9999 BKN020 BKN080 28/24 Q1014
cycle: 17

Station Type Date Time Source
SBRB TAF 2024/02/26 18:03 UTC NOAA